Altonah, Utah
Current Conditions -  °F | °C
As of 8:53 AM on Friday 19 Dec 2014 (Local Time) from KVEL Reporting Station
Overcast Overcast  
Wind Chill: 27°   Ceiling: 1700
Heat Index: 27°   Visibility: 7mi
Dew Point: 24°   Wind: 3mph
Humidity: 89%   Direction: 160°SSE
Pressure: 30.28"   Gusts: NA
Location:  40.4°N, 110.29°W
Report Text: KVEL 191553Z AUTO 16003KT 7SM OVC017 M03/M04 A3028 RMK AO2 SLP286 T10281044
Loading
Personal Weather Stations






























Interactive Weather Map New forecast layout! Learn more

10-Day Weather Forecast

Advertisements
Track Severe Weather on mobile